createdAt,value
2022-08-03T00:00:40.841Z,47.43
2022-08-03T00:03:09.099Z,47.87
2022-08-03T00:05:37.981Z,47.84
2022-08-03T00:08:06.396Z,48.48
2022-08-03T00:10:39.089Z,48.51
2022-08-03T00:13:06.705Z,48.89
2022-08-03T00:15:35.190Z,49.18
2022-08-03T00:18:03.940Z,49.43
2022-08-03T00:20:31.756Z,49.83
2022-08-03T00:23:00.552Z,49.50
2022-08-03T00:25:38.124Z,50.66
2022-08-03T00:28:07.591Z,50.73
2022-08-03T00:30:37.405Z,50.62
2022-08-03T00:33:06.340Z,50.70
2022-08-03T00:35:50.241Z,50.61
2022-08-03T00:38:24.346Z,51.05
2022-08-03T00:40:52.538Z,51.32
2022-08-03T00:43:20.918Z,51.48
2022-08-03T00:45:49.156Z,51.45
2022-08-03T00:48:24.931Z,51.82
2022-08-03T00:51:01.515Z,52.02
2022-08-03T00:53:30.269Z,52.09
2022-08-03T00:55:59.155Z,52.06
2022-08-03T00:58:27.628Z,52.20
2022-08-03T01:00:56.981Z,52.02
2022-08-03T01:03:25.601Z,52.29
2022-08-03T01:06:01.501Z,52.49
2022-08-03T01:08:58.369Z,52.57
2022-08-03T01:12:00.485Z,52.83
2022-08-03T01:14:32.364Z,52.76
2022-08-03T01:17:11.515Z,53.21
2022-08-03T01:20:07.550Z,53.25
2022-08-03T01:23:12.949Z,53.12
2022-08-03T01:25:54.195Z,53.59
2022-08-03T01:28:41.479Z,53.97
2022-08-03T01:31:26.404Z,53.85
2022-08-03T01:34:00.307Z,53.87
2022-08-03T01:36:37.254Z,54.25
2022-08-03T01:39:10.135Z,54.45
2022-08-03T01:41:45.259Z,54.46
2022-08-03T01:44:29.283Z,54.82
2022-08-03T01:47:03.901Z,54.44
2022-08-03T01:49:39.742Z,54.73
2022-08-03T01:52:10.005Z,54.31
2022-08-03T01:54:44.033Z,54.44
2022-08-03T01:57:14.825Z,54.58
2022-08-03T01:59:49.862Z,54.91
2022-08-03T02:02:33.440Z,54.65
2022-08-03T02:05:04.227Z,55.13
2022-08-03T02:07:35.829Z,55.27
2022-08-03T02:10:06.731Z,55.32
2022-08-03T02:12:37.888Z,55.43
2022-08-03T02:15:08.705Z,55.82
2022-08-03T02:17:40.335Z,55.47
2022-08-03T02:20:12.750Z,55.65
2022-08-03T02:22:42.907Z,55.88
2022-08-03T02:25:14.317Z,55.88
2022-08-03T02:27:49.959Z,55.68
2022-08-03T02:30:43.967Z,55.82
2022-08-03T02:33:40.683Z,56.11
2022-08-03T02:36:19.841Z,55.80
2022-08-03T02:39:08.751Z,55.97
2022-08-03T02:41:45.584Z,56.46
2022-08-03T02:44:17.554Z,56.50
2022-08-03T02:46:52.621Z,56.32
2022-08-03T02:49:41.420Z,56.86
2022-08-03T02:52:17.117Z,56.39
2022-08-03T02:54:55.934Z,56.30
2022-08-03T02:57:26.878Z,56.86
2022-08-03T02:59:57.267Z,56.30
2022-08-03T03:02:26.956Z,56.58
2022-08-03T03:05:52.345Z,56.54
2022-08-03T03:07:51.319Z,56.96
2022-08-03T03:10:23.542Z,56.57
2022-08-03T03:12:56.435Z,56.72
2022-08-03T03:15:30.274Z,56.67
2022-08-03T03:18:00.587Z,56.71
2022-08-03T03:20:32.629Z,56.43
2022-08-03T03:23:01.866Z,56.77
2022-08-03T03:25:33.785Z,56.56
2022-08-03T03:28:03.469Z,55.93
2022-08-03T03:30:44.351Z,56.30
2022-08-03T03:33:22.804Z,56.19
2022-08-03T03:36:00.591Z,55.74
2022-08-03T03:38:28.798Z,55.81
2022-08-03T03:40:57.384Z,55.30
2022-08-03T03:43:26.194Z,55.28
2022-08-03T03:45:56.434Z,55.41
2022-08-03T03:48:26.450Z,55.09
2022-08-03T03:50:55.173Z,55.21
2022-08-03T03:53:23.908Z,54.45
2022-08-03T03:56:01.736Z,54.81
2022-08-03T03:58:32.711Z,54.29
2022-08-03T04:01:01.394Z,53.56
2022-08-03T04:03:32.451Z,54.16
2022-08-03T04:06:19.546Z,53.67
2022-08-03T04:09:08.636Z,54.18
2022-08-03T04:11:41.494Z,54.13
2022-08-03T04:14:33.362Z,54.14
2022-08-03T04:17:05.814Z,54.46
2022-08-03T04:19:44.433Z,54.30
2022-08-03T04:22:15.914Z,54.16
2022-08-03T04:24:51.855Z,54.24
2022-08-03T04:27:25.809Z,54.18
2022-08-03T04:29:57.333Z,54.15
2022-08-03T04:32:53.287Z,54.32
2022-08-03T04:36:02.046Z,54.20
2022-08-03T04:38:26.965Z,54.29
2022-08-03T04:40:57.301Z,53.69
2022-08-03T04:43:26.803Z,53.75
2022-08-03T04:45:55.882Z,53.76
2022-08-03T04:48:24.599Z,53.63
2022-08-03T04:50:54.429Z,53.78
2022-08-03T04:53:27.273Z,53.69
2022-08-03T04:55:55.377Z,53.75
2022-08-03T04:58:23.440Z,53.54
2022-08-03T05:00:52.925Z,53.57
2022-08-03T05:03:25.033Z,54.04
2022-08-03T05:06:01.604Z,53.52
2022-08-03T05:08:30.769Z,53.43
2022-08-03T05:11:00.103Z,53.67
2022-08-03T05:13:28.349Z,53.42
2022-08-03T05:15:57.103Z,53.83
2022-08-03T05:18:24.933Z,54.03
2022-08-03T05:20:53.054Z,53.58
2022-08-03T05:23:21.388Z,54.31
2022-08-03T05:25:49.678Z,53.57
2022-08-03T05:28:18.123Z,53.85
2022-08-03T05:30:45.917Z,53.05
2022-08-03T05:33:13.801Z,53.52
2022-08-03T05:35:56.811Z,52.96
2022-08-03T05:38:34.825Z,53.01
2022-08-03T05:41:21.785Z,53.25
2022-08-03T05:43:54.373Z,53.06
2022-08-03T05:46:23.418Z,52.63
2022-08-03T05:48:52.755Z,53.04
2022-08-03T05:51:24.585Z,53.02
2022-08-03T05:53:53.715Z,52.69
2022-08-03T05:56:26.151Z,53.12
2022-08-03T05:58:56.013Z,52.98
2022-08-03T06:01:24.194Z,52.55
2022-08-03T06:03:53.147Z,52.69
2022-08-03T06:06:21.774Z,53.15
2022-08-03T06:08:49.911Z,52.59
2022-08-03T06:11:18.274Z,53.07
2022-08-03T06:13:46.612Z,52.42
2022-08-03T06:16:14.914Z,53.07
2022-08-03T06:18:43.482Z,52.25
2022-08-03T06:21:15.680Z,52.06
2022-08-03T06:23:54.643Z,52.44
2022-08-03T06:26:25.937Z,51.90
2022-08-03T06:28:54.728Z,51.26
2022-08-03T06:31:32.963Z,51.50
2022-08-03T06:34:33.904Z,51.15
2022-08-03T06:37:01.309Z,51.19
2022-08-03T06:39:29.174Z,51.57
2022-08-03T06:41:57.479Z,51.70
2022-08-03T06:44:25.372Z,52.19
2022-08-03T06:46:53.510Z,50.55
2022-08-03T06:49:21.826Z,51.83
2022-08-03T06:52:03.250Z,49.93
2022-08-03T06:54:34.669Z,49.56
2022-08-03T06:57:02.723Z,49.88
2022-08-03T07:00:10.827Z,49.47
2022-08-03T07:02:20.518Z,49.79
2022-08-03T07:04:50.130Z,49.23
2022-08-03T07:07:18.331Z,49.21
2022-08-03T07:09:55.741Z,48.53
2022-08-03T07:12:30.209Z,48.17
2022-08-03T07:15:02.357Z,48.05
2022-08-03T07:17:33.062Z,47.34
2022-08-03T07:20:01.831Z,47.68
2022-08-03T07:22:29.966Z,48.15
2022-08-03T07:24:57.693Z,46.95
2022-08-03T07:27:27.620Z,46.84
2022-08-03T07:29:55.759Z,46.59
2022-08-03T07:32:25.289Z,46.22
2022-08-03T07:34:58.298Z,46.32
2022-08-03T07:37:28.827Z,45.67
2022-08-03T07:39:56.663Z,45.44
2022-08-03T07:42:25.324Z,44.51
2022-08-03T07:44:53.136Z,45.08
2022-08-03T07:47:23.741Z,44.99
2022-08-03T07:49:51.861Z,45.05
2022-08-03T07:52:38.114Z,44.88
2022-08-03T07:55:07.075Z,44.27
2022-08-03T07:57:35.280Z,43.91
2022-08-03T08:00:04.894Z,43.67
2022-08-03T08:02:42.410Z,43.54
2022-08-03T08:05:11.497Z,44.04
2022-08-03T08:07:39.877Z,43.63
2022-08-03T08:10:10.535Z,43.67
2022-08-03T08:12:40.047Z,42.76
2022-08-03T08:15:09.421Z,42.52
2022-08-03T08:17:52.616Z,42.89
2022-08-03T08:20:28.348Z,41.74
2022-08-03T08:23:03.519Z,40.52
2022-08-03T08:25:37.896Z,40.41
2022-08-03T08:28:30.081Z,40.93
2022-08-03T08:30:54.448Z,39.98
2022-08-03T08:33:23.949Z,38.33
2022-08-03T08:35:55.344Z,38.80
2022-08-03T08:38:24.014Z,38.81
2022-08-03T08:40:52.704Z,38.51
2022-08-03T08:43:20.388Z,38.02
2022-08-03T08:45:52.980Z,38.38
2022-08-03T08:48:25.438Z,37.72
2022-08-03T08:50:57.736Z,41.45
2022-08-03T08:53:29.500Z,43.24
2022-08-03T08:56:02.472Z,43.65
2022-08-03T08:58:35.712Z,44.90
2022-08-03T09:01:05.009Z,45.86
2022-08-03T09:03:35.022Z,46.54
2022-08-03T09:06:03.343Z,46.96
2022-08-03T09:08:32.574Z,48.50
2022-08-03T09:11:01.669Z,49.32
2022-08-03T09:13:29.835Z,49.67
2022-08-03T09:16:14.153Z,50.11
2022-08-03T09:18:43.999Z,49.86
2022-08-03T09:21:31.699Z,50.23
2022-08-03T09:24:07.059Z,50.27
2022-08-03T09:26:38.956Z,50.80
2022-08-03T09:29:12.831Z,50.83
2022-08-03T09:31:46.874Z,51.13
2022-08-03T09:34:17.549Z,51.13
2022-08-03T09:36:47.389Z,52.04
2022-08-03T09:39:16.205Z,52.85
2022-08-03T09:41:46.208Z,52.81
2022-08-03T09:44:25.233Z,53.60
2022-08-03T09:46:57.403Z,54.15
2022-08-03T09:49:25.484Z,54.51
2022-08-03T09:52:32.387Z,54.83
2022-08-03T09:54:43.401Z,54.21
2022-08-03T09:57:25.282Z,55.19
2022-08-03T10:00:04.461Z,55.13
2022-08-03T10:03:06.375Z,54.63
2022-08-03T10:05:34.758Z,55.46
2022-08-03T10:08:16.188Z,56.05
2022-08-03T10:10:45.855Z,56.08
2022-08-03T10:13:18.533Z,56.57
2022-08-03T10:16:24.988Z,56.08
2022-08-03T10:18:34.554Z,56.08
2022-08-03T10:21:11.059Z,56.95
2022-08-03T10:23:42.576Z,57.62
2022-08-03T10:26:13.679Z,57.96
2022-08-03T10:28:47.949Z,58.18
2022-08-03T10:31:18.815Z,57.97
2022-08-03T10:33:59.692Z,59.05
2022-08-03T10:36:31.195Z,56.90
2022-08-03T10:39:01.628Z,57.90
2022-08-03T10:41:34.016Z,59.96
2022-08-03T10:44:11.589Z,59.74
2022-08-03T10:46:44.676Z,59.01
2022-08-03T10:49:34.769Z,59.59
2022-08-03T10:52:12.779Z,59.31
2022-08-03T10:55:17.467Z,58.27
2022-08-03T10:58:07.990Z,58.80
2022-08-03T11:00:54.065Z,58.19
2022-08-03T11:03:37.743Z,58.09
2022-08-03T11:06:23.384Z,57.84
2022-08-03T11:09:17.008Z,57.59
2022-08-03T11:11:51.150Z,56.81
2022-08-03T11:14:33.589Z,56.99
2022-08-03T11:17:15.535Z,56.84
2022-08-03T11:19:57.315Z,56.20
2022-08-03T11:22:51.389Z,55.05
2022-08-03T11:25:53.154Z,55.31
2022-08-03T11:28:30.680Z,54.96
2022-08-03T11:31:49.937Z,55.14
2022-08-03T11:34:16.297Z,56.65
2022-08-03T11:37:22.489Z,55.69
2022-08-03T11:39:54.017Z,56.22
2022-08-03T11:42:28.563Z,56.02
2022-08-03T11:44:58.687Z,55.94
2022-08-03T11:47:28.805Z,55.28
2022-08-03T11:50:01.002Z,53.07
2022-08-03T11:52:35.896Z,54.09
2022-08-03T11:55:10.715Z,53.50
2022-08-03T11:59:01.669Z,53.80
2022-08-03T12:00:30.936Z,54.01
2022-08-03T12:03:03.321Z,54.32
2022-08-03T12:05:53.477Z,54.11
2022-08-03T12:08:29.954Z,53.79
2022-08-03T12:11:00.387Z,54.16
2022-08-03T12:14:26.938Z,53.43
2022-08-03T12:16:29.460Z,53.96
2022-08-03T12:19:03.484Z,53.24
2022-08-03T12:21:32.142Z,54.29
2022-08-03T12:24:05.244Z,54.43
2022-08-03T12:26:59.023Z,54.51
2022-08-03T12:29:28.055Z,53.93
2022-08-03T12:31:56.590Z,54.44
2022-08-03T12:34:24.584Z,54.83
2022-08-03T12:36:57.183Z,54.70
2022-08-03T12:39:31.969Z,54.65
2022-08-03T12:42:00.633Z,54.98
2022-08-03T12:44:37.261Z,53.92
2022-08-03T12:47:07.401Z,54.16
2022-08-03T12:49:51.724Z,53.64
2022-08-03T12:52:23.954Z,53.68
2022-08-03T12:55:02.105Z,54.67
2022-08-03T12:57:43.321Z,54.48
2022-08-03T13:00:21.652Z,52.89
2022-08-03T13:03:38.819Z,53.62
2022-08-03T13:05:53.127Z,51.21
2022-08-03T13:08:25.238Z,53.09
2022-08-03T13:10:59.380Z,53.34
2022-08-03T13:13:58.537Z,55.32
2022-08-03T13:16:26.799Z,54.07
2022-08-03T13:18:57.182Z,54.18
2022-08-03T13:21:24.980Z,54.76
2022-08-03T13:23:53.060Z,55.41
2022-08-03T13:26:21.364Z,54.41
2022-08-03T13:28:49.932Z,53.65
2022-08-03T13:31:18.021Z,53.11
2022-08-03T13:33:48.438Z,52.85
2022-08-03T13:36:21.074Z,52.26
2022-08-03T13:38:49.322Z,53.49
2022-08-03T13:41:17.667Z,54.07
2022-08-03T13:44:26.184Z,54.69
2022-08-03T13:46:47.024Z,55.43
2022-08-03T13:49:15.367Z,56.65
2022-08-03T13:51:43.898Z,56.20
2022-08-03T13:54:11.980Z,54.44
2022-08-03T13:56:39.893Z,53.81
2022-08-03T13:59:07.936Z,54.71
2022-08-03T14:01:54.361Z,53.63
2022-08-03T14:04:23.048Z,54.17
2022-08-03T14:06:59.805Z,53.91
2022-08-03T14:09:27.834Z,55.71
2022-08-03T14:12:07.153Z,56.02
2022-08-03T14:14:36.451Z,55.50
2022-08-03T14:17:04.257Z,55.80
2022-08-03T14:19:32.228Z,55.99
2022-08-03T14:22:19.752Z,57.04
2022-08-03T14:24:50.472Z,55.46
2022-08-03T14:27:19.104Z,54.94
2022-08-03T14:29:49.626Z,54.68
2022-08-03T14:32:17.127Z,53.20
2022-08-03T14:34:45.254Z,53.46
2022-08-03T14:37:12.876Z,53.39
2022-08-03T14:40:00.298Z,51.84
2022-08-03T14:42:29.299Z,51.63
2022-08-03T14:45:02.457Z,51.71
2022-08-03T14:47:33.571Z,50.91
2022-08-03T14:50:35.702Z,50.40
2022-08-03T14:53:07.116Z,48.66
2022-08-03T14:55:38.868Z,47.61
2022-08-03T14:58:23.007Z,47.83
2022-08-03T15:00:55.999Z,46.88
2022-08-03T15:03:25.430Z,47.34
2022-08-03T15:05:54.921Z,47.45
2022-08-03T15:08:25.861Z,48.27
2022-08-03T15:10:56.637Z,48.93
2022-08-03T15:13:25.784Z,48.37
2022-08-03T15:15:55.424Z,48.48
2022-08-03T15:18:25.048Z,48.93
2022-08-03T15:20:59.234Z,49.53
2022-08-03T15:23:27.306Z,48.72
2022-08-03T15:26:27.884Z,48.96
2022-08-03T15:28:44.514Z,48.88
2022-08-03T15:31:12.890Z,48.29
2022-08-03T15:33:48.359Z,48.17
2022-08-03T15:36:17.650Z,48.36
2022-08-03T15:38:46.230Z,48.49
2022-08-03T15:41:14.699Z,49.85
2022-08-03T15:43:47.632Z,48.96
2022-08-03T15:46:31.774Z,49.08
2022-08-03T15:48:59.663Z,48.21
2022-08-03T15:51:27.603Z,48.65
2022-08-03T15:53:57.940Z,48.85
2022-08-03T15:56:27.119Z,47.48
2022-08-03T15:59:13.508Z,47.56
2022-08-03T16:01:52.770Z,47.55
2022-08-03T16:04:27.456Z,47.54
2022-08-03T16:07:08.090Z,46.38
2022-08-03T16:09:46.269Z,47.06
2022-08-03T16:12:16.166Z,46.40
2022-08-03T16:14:54.018Z,46.04
2022-08-03T16:17:32.830Z,46.24
2022-08-03T16:20:01.157Z,46.06
2022-08-03T16:22:44.832Z,45.54
2022-08-03T16:25:16.385Z,46.52
2022-08-03T16:28:00.489Z,46.90
2022-08-03T16:30:33.721Z,46.65
2022-08-03T16:33:01.637Z,46.88
2022-08-03T16:35:29.552Z,47.03
2022-08-03T16:37:58.074Z,46.87
2022-08-03T16:40:27.071Z,47.37
2022-08-03T16:42:55.373Z,46.96
2022-08-03T16:45:23.840Z,46.66
2022-08-03T16:48:05.394Z,45.92
2022-08-03T16:50:36.311Z,45.93
2022-08-03T16:53:09.746Z,46.50
2022-08-03T16:55:50.158Z,47.19
2022-08-03T16:58:41.285Z,47.01
2022-08-03T17:01:21.457Z,47.55
2022-08-03T17:04:03.364Z,47.55
2022-08-03T17:06:44.895Z,47.42
2022-08-03T17:09:22.038Z,47.80
2022-08-03T17:11:52.764Z,48.36
2022-08-03T17:14:29.277Z,49.01
2022-08-03T17:17:01.796Z,49.13
2022-08-03T17:19:32.790Z,48.61
2022-08-03T17:22:08.163Z,48.85
2022-08-03T17:24:41.420Z,48.08
2022-08-03T17:28:51.422Z,47.59
2022-08-03T17:30:11.875Z,48.65
2022-08-03T17:32:52.651Z,48.12
2022-08-03T17:35:36.493Z,49.88
2022-08-03T17:38:13.728Z,49.16
2022-08-03T17:40:50.261Z,48.85
2022-08-03T17:44:13.579Z,49.15
2022-08-03T17:46:21.848Z,48.67
2022-08-03T17:48:51.838Z,48.55
2022-08-03T17:51:46.167Z,48.23
2022-08-03T17:54:23.586Z,48.78
2022-08-03T17:57:00.474Z,45.86
2022-08-03T17:59:57.200Z,39.45
2022-08-03T18:03:16.619Z,39.50
2022-08-03T18:06:10.515Z,39.77
2022-08-03T18:08:57.102Z,38.77
2022-08-03T18:11:37.091Z,38.71
2022-08-03T18:14:17.018Z,38.81
2022-08-03T18:16:52.485Z,39.14
2022-08-03T18:20:03.604Z,40.00
2022-08-03T18:22:11.389Z,40.29
2022-08-03T18:24:40.358Z,39.84
2022-08-03T18:27:11.284Z,40.63
2022-08-03T18:29:42.549Z,40.79
2022-08-03T18:32:16.738Z,42.17
2022-08-03T18:34:53.045Z,42.57
2022-08-03T18:37:26.647Z,42.45
2022-08-03T18:40:07.446Z,44.03
2022-08-03T18:42:36.291Z,43.09
2022-08-03T18:45:14.988Z,43.72
2022-08-03T18:48:18.785Z,43.74
2022-08-03T18:51:10.430Z,44.01
2022-08-03T18:56:55.190Z,45.02
2022-08-03T18:59:36.709Z,44.95
2022-08-03T19:02:30.462Z,45.26
2022-08-03T19:05:07.954Z,45.64
2022-08-03T19:07:37.808Z,45.75
2022-08-03T19:10:15.680Z,46.06
2022-08-03T19:12:58.378Z,46.57
2022-08-03T19:15:36.826Z,47.12
2022-08-03T19:18:10.486Z,47.29
2022-08-03T19:20:39.065Z,47.41
2022-08-03T19:23:07.532Z,47.60
2022-08-03T19:25:40.670Z,47.76
2022-08-03T19:28:10.570Z,47.94
2022-08-03T19:30:40.707Z,47.81
2022-08-03T19:33:16.333Z,47.61
2022-08-03T19:35:55.622Z,47.60
2022-08-03T19:38:28.689Z,48.39
2022-08-03T19:41:07.828Z,48.28
2022-08-03T19:43:58.201Z,48.22
2022-08-03T19:46:34.034Z,49.08
2022-08-03T19:49:19.560Z,49.45
2022-08-03T19:52:00.807Z,48.47
2022-08-03T19:54:53.771Z,47.03
2022-08-03T19:57:35.773Z,46.42
2022-08-03T20:00:09.103Z,46.48
2022-08-03T20:02:40.072Z,45.92
2022-08-03T20:05:14.727Z,45.55
2022-08-03T20:07:47.745Z,45.65
2022-08-03T20:10:18.488Z,45.29
2022-08-03T20:12:48.378Z,44.14
2022-08-03T20:15:18.295Z,44.40
2022-08-03T20:17:59.951Z,43.63
2022-08-03T20:20:35.067Z,43.63
2022-08-03T20:23:16.569Z,42.31
2022-08-03T20:25:58.554Z,41.88
2022-08-03T20:28:33.996Z,41.91
2022-08-03T20:31:05.687Z,41.86
2022-08-03T20:33:48.487Z,42.34
2022-08-03T20:36:18.818Z,43.15
2022-08-03T20:38:48.260Z,42.80
2022-08-03T20:41:17.717Z,43.16
2022-08-03T20:43:46.960Z,42.99
2022-08-03T20:46:51.682Z,42.20
2022-08-03T20:49:24.246Z,41.74
2022-08-03T20:51:53.490Z,40.73
2022-08-03T20:54:31.353Z,41.31
2022-08-03T20:57:06.991Z,41.67
2022-08-03T20:59:50.627Z,41.80
2022-08-03T21:02:29.945Z,42.14
2022-08-03T21:05:02.849Z,42.14
2022-08-03T21:08:04.203Z,42.25
2022-08-03T21:10:27.955Z,42.90
2022-08-03T21:13:00.957Z,44.34
2022-08-03T21:16:12.454Z,42.53
2022-08-03T21:18:46.034Z,41.97
2022-08-03T21:21:16.260Z,42.25
2022-08-03T21:23:48.929Z,42.58
2022-08-03T21:26:23.076Z,42.52
2022-08-03T21:29:12.045Z,42.62
2022-08-03T21:31:41.397Z,42.64
2022-08-03T21:34:09.096Z,42.24
2022-08-03T21:36:38.293Z,42.45
2022-08-03T21:39:09.870Z,42.03
2022-08-03T21:41:40.157Z,42.41
2022-08-03T21:44:08.809Z,42.42
2022-08-03T21:46:45.150Z,42.42
2022-08-03T21:50:07.262Z,43.24
2022-08-03T21:52:08.116Z,43.96
2022-08-03T21:54:46.332Z,43.87
2022-08-03T21:57:26.578Z,44.14
2022-08-03T22:00:03.546Z,44.32
2022-08-03T22:02:54.441Z,44.04
2022-08-03T22:05:29.077Z,44.14
2022-08-03T22:08:15.591Z,44.70
2022-08-03T22:10:48.041Z,45.79
2022-08-03T22:13:44.079Z,45.74
2022-08-03T22:16:08.531Z,46.49
2022-08-03T22:18:46.198Z,46.50
2022-08-03T22:21:27.765Z,46.63
2022-08-03T22:24:06.966Z,46.35
2022-08-03T22:27:05.539Z,46.85
2022-08-03T22:29:37.885Z,47.29
2022-08-03T22:32:17.083Z,47.64
2022-08-03T22:34:48.697Z,47.62
2022-08-03T22:37:33.643Z,47.75
2022-08-03T22:40:10.524Z,47.90
2022-08-03T22:42:40.274Z,47.49
2022-08-03T22:45:10.193Z,47.30
2022-08-03T22:47:58.837Z,47.62
2022-08-03T22:50:31.341Z,47.18
2022-08-03T22:53:03.930Z,47.16
2022-08-03T22:55:32.875Z,47.00
2022-08-03T22:58:01.537Z,46.96
2022-08-03T23:00:30.563Z,47.02
2022-08-03T23:03:02.981Z,47.18
2022-08-03T23:06:01.778Z,47.71
2022-08-03T23:08:36.538Z,48.02
2022-08-03T23:11:09.457Z,48.40
2022-08-03T23:13:40.979Z,48.16
2022-08-03T23:16:09.197Z,48.26
2022-08-03T23:18:45.046Z,50.14
2022-08-03T23:21:15.249Z,50.67
2022-08-03T23:23:47.134Z,50.91
2022-08-03T23:26:18.975Z,51.05
2022-08-03T23:28:49.134Z,51.04
2022-08-03T23:31:19.468Z,51.53
2022-08-03T23:34:16.392Z,51.47
2022-08-03T23:36:49.210Z,51.48
2022-08-03T23:39:18.631Z,51.80
2022-08-03T23:41:49.497Z,51.62
2022-08-03T23:44:24.777Z,51.34
2022-08-03T23:46:53.621Z,51.56
2022-08-03T23:49:22.004Z,51.89
2022-08-03T23:52:21.811Z,51.75
2022-08-03T23:55:10.304Z,51.90
2022-08-03T23:57:50.306Z,52.52
